< Typhoon 199206 1992 Season Typhoon 199208 >
Typhoon 199207 (GARY)
General InformationTrack Information on Google MapsDetailed Wind InformationList of All Images || Disaster Info.ResourceGoogle EarthGE AnimationAtom FeedGeoJSON
Detalied Best Track (Time Zone = UTC)
Year Month Day Hour Lat. Long. Pressure (hPa) Wind (kt) Class Image Chart
1992 7 17 06 14.7 130.2 1008 0 2 Image Chart
1992 7 17 12 14.1 129.6 1008 0 2 Image Chart
1992 7 17 18 14.0 129.0 1008 0 2 Image Chart
1992 7 18 00 14.2 128.0 1008 0 2 Image Chart
1992 7 18 06 14.5 127.3 1006 0 2 Image Chart
1992 7 18 12 14.7 126.8 1006 0 2 Image Chart
1992 7 18 18 14.9 126.0 1006 0 2 Image Chart
1992 7 19 00 15.0 125.2 1006 0 2 Image Chart
1992 7 19 06 15.2 124.3 1006 0 2 Image Chart
1992 7 19 12 15.4 123.8 1006 0 2 Image Chart
1992 7 19 18 15.7 123.3 1006 0 2 Image Chart
1992 7 20 00 16.2 122.8 1002 0 2 Image Chart
1992 7 20 06 17.0 121.7 1000 0 2 Image Chart
1992 7 20 12 17.5 120.2 998 0 2 Image Chart
1992 7 20 18 17.6 119.0 998 0 2 Image Chart
1992 7 21 00 17.8 117.6 996 35 3 Image Chart
1992 7 21 06 18.4 116.5 994 40 3 Image Chart
1992 7 21 12 19.1 115.6 992 45 3 Image Chart
1992 7 21 18 19.6 114.6 990 45 3 Image Chart
1992 7 22 00 19.7 113.5 985 50 4 Image Chart
1992 7 22 06 19.9 112.3 980 55 4 Image Chart
1992 7 22 12 20.3 111.4 980 55 4 Image Chart
1992 7 22 18 21.1 110.5 985 50 4 Image Chart
1992 7 23 00 21.7 109.3 990 45 3 Image Chart
1992 7 23 06 22.3 107.9 992 35 3 Image Chart
1992 7 23 12 22.5 106.7 998 0 2 Image Chart
1992 7 23 18 22.5 105.2 998 0 2 Image Chart
1992 7 24 00 22.3 103.6 1000 0 2 Image Chart
1992 7 24 06 22.2 102.2 1000 0 2 Image Chart
1992 7 24 12 22.0 100.8 1000 0 2 Image Chart
1992 7 24 18 22.0 99.5 1000 0 2 Image Chart
Japan Meteorological Agency Best Track Data | Correction Date : 1992-12-25
< Typhoon 199206 1992 Season Typhoon 199208 >

Help